sensor_id;sensor_type;location;lat;lon;timestamp;P1;durP1;ratioP1;P2;durP2;ratioP2
4057;SDS011;2044;48.692;9.020;2023-05-29T00:00:25;5.60;;;4.27;;
4057;SDS011;2044;48.692;9.020;2023-05-29T00:02:52;7.77;;;4.40;;
4057;SDS011;2044;48.692;9.020;2023-05-29T00:05:19;11.20;;;5.00;;
4057;SDS011;2044;48.692;9.020;2023-05-29T00:07:45;8.30;;;4.73;;
4057;SDS011;2044;48.692;9.020;2023-05-29T00:10:14;8.33;;;4.80;;
4057;SDS011;2044;48.692;9.020;2023-05-29T00:12:42;11.13;;;4.43;;
4057;SDS011;2044;48.692;9.020;2023-05-29T00:15:09;10.87;;;4.83;;
4057;SDS011;2044;48.692;9.020;2023-05-29T00:17:37;9.40;;;4.20;;
4057;SDS011;2044;48.692;9.020;2023-05-29T00:20:05;7.87;;;4.53;;
4057;SDS011;2044;48.692;9.020;2023-05-29T00:22:34;11.27;;;4.83;;
4057;SDS011;2044;48.692;9.020;2023-05-29T00:25:02;8.00;;;4.63;;
4057;SDS011;2044;48.692;9.020;2023-05-29T00:27:29;10.10;;;4.10;;
4057;SDS011;2044;48.692;9.020;2023-05-29T00:29:59;9.43;;;4.23;;
4057;SDS011;2044;48.692;9.020;2023-05-29T00:32:26;7.87;;;4.70;;
4057;SDS011;2044;48.692;9.020;2023-05-29T00:34:53;8.13;;;4.50;;
4057;SDS011;2044;48.692;9.020;2023-05-29T00:37:20;9.40;;;5.00;;
4057;SDS011;2044;48.692;9.020;2023-05-29T00:39:47;8.03;;;5.13;;
4057;SDS011;2044;48.692;9.020;2023-05-29T00:42:14;12.27;;;4.67;;
4057;SDS011;2044;48.692;9.020;2023-05-29T00:44:41;10.07;;;5.20;;
4057;SDS011;2044;48.692;9.020;2023-05-29T00:47:09;9.83;;;4.70;;
4057;SDS011;2044;48.692;9.020;2023-05-29T00:49:35;13.20;;;4.90;;
4057;SDS011;2044;48.692;9.020;2023-05-29T00:52:03;10.60;;;5.40;;
4057;SDS011;2044;48.692;9.020;2023-05-29T00:54:32;11.77;;;4.90;;
4057;SDS011;2044;48.692;9.020;2023-05-29T00:57:00;8.33;;;4.40;;
4057;SDS011;2044;48.692;9.020;2023-05-29T00:59:30;10.87;;;5.13;;
4057;SDS011;2044;48.692;9.020;2023-05-29T01:01:59;12.13;;;5.90;;
4057;SDS011;2044;48.692;9.020;2023-05-29T01:04:28;11.33;;;4.73;;
4057;SDS011;2044;48.692;9.020;2023-05-29T01:06:58;8.17;;;4.63;;
4057;SDS011;2044;48.692;9.020;2023-05-29T01:09:27;7.00;;;4.30;;
4057;SDS011;2044;48.692;9.020;2023-05-29T01:11:57;12.30;;;6.43;;
4057;SDS011;2044;48.692;9.020;2023-05-29T01:14:29;11.43;;;5.13;;
4057;SDS011;2044;48.692;9.020;2023-05-29T01:17:03;10.37;;;5.40;;
4057;SDS011;2044;48.692;9.020;2023-05-29T01:19:58;8.60;;;5.03;;
4057;SDS011;2044;48.692;9.020;2023-05-29T01:22:40;9.33;;;5.60;;
4057;SDS011;2044;48.692;9.020;2023-05-29T01:25:29;12.37;;;5.80;;
4057;SDS011;2044;48.692;9.020;2023-05-29T01:28:12;9.50;;;4.60;;
4057;SDS011;2044;48.692;9.020;2023-05-29T01:30:41;11.47;;;5.00;;
4057;SDS011;2044;48.692;9.020;2023-05-29T01:33:08;8.03;;;5.13;;
4057;SDS011;2044;48.692;9.020;2023-05-29T01:35:36;8.57;;;4.83;;
4057;SDS011;2044;48.692;9.020;2023-05-29T01:38:02;8.00;;;4.93;;
4057;SDS011;2044;48.692;9.020;2023-05-29T01:40:29;9.60;;;5.10;;
4057;SDS011;2044;48.692;9.020;2023-05-29T01:42:56;11.97;;;5.87;;
4057;SDS011;2044;48.692;9.020;2023-05-29T01:45:24;10.20;;;4.80;;
4057;SDS011;2044;48.692;9.020;2023-05-29T01:47:51;8.47;;;4.50;;
4057;SDS011;2044;48.692;9.020;2023-05-29T01:50:18;9.07;;;4.60;;
4057;SDS011;2044;48.692;9.020;2023-05-29T01:52:46;9.47;;;5.10;;
4057;SDS011;2044;48.692;9.020;2023-05-29T01:55:13;9.03;;;4.87;;
4057;SDS011;2044;48.692;9.020;2023-05-29T01:57:40;10.20;;;4.17;;
4057;SDS011;2044;48.692;9.020;2023-05-29T02:00:08;12.30;;;4.80;;
4057;SDS011;2044;48.692;9.020;2023-05-29T02:02:38;9.40;;;4.80;;
4057;SDS011;2044;48.692;9.020;2023-05-29T02:05:05;10.50;;;5.77;;
4057;SDS011;2044;48.692;9.020;2023-05-29T02:07:33;9.67;;;4.90;;
4057;SDS011;2044;48.692;9.020;2023-05-29T02:10:01;10.80;;;5.93;;
4057;SDS011;2044;48.692;9.020;2023-05-29T02:12:28;13.90;;;6.07;;
4057;SDS011;2044;48.692;9.020;2023-05-29T02:14:55;10.13;;;5.53;;
4057;SDS011;2044;48.692;9.020;2023-05-29T02:17:22;12.40;;;5.27;;
4057;SDS011;2044;48.692;9.020;2023-05-29T02:19:50;8.73;;;4.67;;
4057;SDS011;2044;48.692;9.020;2023-05-29T02:22:17;12.10;;;6.00;;
4057;SDS011;2044;48.692;9.020;2023-05-29T02:24:44;8.23;;;5.43;;
4057;SDS011;2044;48.692;9.020;2023-05-29T02:27:11;9.53;;;5.30;;
4057;SDS011;2044;48.692;9.020;2023-05-29T02:29:37;9.80;;;5.43;;
4057;SDS011;2044;48.692;9.020;2023-05-29T02:32:04;8.80;;;4.60;;
4057;SDS011;2044;48.692;9.020;2023-05-29T02:34:31;11.90;;;5.27;;
4057;SDS011;2044;48.692;9.020;2023-05-29T02:36:59;8.83;;;4.90;;
4057;SDS011;2044;48.692;9.020;2023-05-29T02:39:26;10.17;;;4.63;;
4057;SDS011;2044;48.692;9.020;2023-05-29T02:41:52;9.63;;;5.10;;
4057;SDS011;2044;48.692;9.020;2023-05-29T02:44:20;10.20;;;5.60;;
4057;SDS011;2044;48.692;9.020;2023-05-29T02:46:47;7.53;;;5.33;;
4057;SDS011;2044;48.692;9.020;2023-05-29T02:49:13;7.47;;;4.80;;
4057;SDS011;2044;48.692;9.020;2023-05-29T02:51:40;8.87;;;4.60;;
4057;SDS011;2044;48.692;9.020;2023-05-29T02:54:08;8.13;;;4.67;;
4057;SDS011;2044;48.692;9.020;2023-05-29T02:56:37;9.07;;;4.70;;
4057;SDS011;2044;48.692;9.020;2023-05-29T02:59:04;8.07;;;4.50;;
4057;SDS011;2044;48.692;9.020;2023-05-29T03:01:30;5.90;;;4.23;;
4057;SDS011;2044;48.692;9.020;2023-05-29T03:03:59;9.63;;;4.20;;
4057;SDS011;2044;48.692;9.020;2023-05-29T03:06:25;11.63;;;4.83;;
4057;SDS011;2044;48.692;9.020;2023-05-29T03:08:52;9.80;;;4.20;;
4057;SDS011;2044;48.692;9.020;2023-05-29T03:11:20;8.87;;;4.53;;
4057;SDS011;2044;48.692;9.020;2023-05-29T03:13:48;9.60;;;5.23;;
4057;SDS011;2044;48.692;9.020;2023-05-29T03:16:15;7.87;;;4.17;;
4057;SDS011;2044;48.692;9.020;2023-05-29T03:18:42;9.60;;;5.80;;
4057;SDS011;2044;48.692;9.020;2023-05-29T03:21:08;8.90;;;4.83;;
4057;SDS011;2044;48.692;9.020;2023-05-29T03:23:35;9.50;;;5.20;;
4057;SDS011;2044;48.692;9.020;2023-05-29T03:26:02;10.20;;;4.50;;
4057;SDS011;2044;48.692;9.020;2023-05-29T03:28:30;8.90;;;4.70;;
4057;SDS011;2044;48.692;9.020;2023-05-29T03:30:57;8.13;;;5.00;;
4057;SDS011;2044;48.692;9.020;2023-05-29T03:33:23;7.60;;;4.27;;
4057;SDS011;2044;48.692;9.020;2023-05-29T03:35:50;7.03;;;4.73;;
4057;SDS011;2044;48.692;9.020;2023-05-29T03:38:17;9.37;;;5.27;;
4057;SDS011;2044;48.692;9.020;2023-05-29T03:40:43;8.33;;;4.73;;
4057;SDS011;2044;48.692;9.020;2023-05-29T03:43:10;8.57;;;4.73;;
4057;SDS011;2044;48.692;9.020;2023-05-29T03:45:38;11.90;;;4.90;;
4057;SDS011;2044;48.692;9.020;2023-05-29T03:48:05;12.50;;;5.80;;
4057;SDS011;2044;48.692;9.020;2023-05-29T03:50:32;9.17;;;5.27;;
4057;SDS011;2044;48.692;9.020;2023-05-29T03:52:58;8.00;;;5.10;;
4057;SDS011;2044;48.692;9.020;2023-05-29T03:55:26;8.50;;;4.97;;
4057;SDS011;2044;48.692;9.020;2023-05-29T03:57:53;8.30;;;5.17;;
4057;SDS011;2044;48.692;9.020;2023-05-29T04:00:20;9.90;;;5.13;;
4057;SDS011;2044;48.692;9.020;2023-05-29T04:02:48;10.93;;;4.97;;
4057;SDS011;2044;48.692;9.020;2023-05-29T04:05:16;11.53;;;5.40;;
4057;SDS011;2044;48.692;9.020;2023-05-29T04:07:43;11.90;;;6.27;;
4057;SDS011;2044;48.692;9.020;2023-05-29T04:10:10;11.57;;;6.93;;
4057;SDS011;2044;48.692;9.020;2023-05-29T04:12:36;10.50;;;5.70;;
4057;SDS011;2044;48.692;9.020;2023-05-29T04:15:04;10.40;;;4.83;;
4057;SDS011;2044;48.692;9.020;2023-05-29T04:17:32;10.40;;;5.77;;
4057;SDS011;2044;48.692;9.020;2023-05-29T04:20:00;9.77;;;6.03;;
4057;SDS011;2044;48.692;9.020;2023-05-29T04:22:33;11.20;;;5.87;;
4057;SDS011;2044;48.692;9.020;2023-05-29T04:24:59;11.50;;;6.17;;
4057;SDS011;2044;48.692;9.020;2023-05-29T04:27:26;8.63;;;5.40;;
4057;SDS011;2044;48.692;9.020;2023-05-29T04:29:53;8.87;;;4.80;;
4057;SDS011;2044;48.692;9.020;2023-05-29T04:32:21;7.13;;;4.30;;
4057;SDS011;2044;48.692;9.020;2023-05-29T04:34:47;5.90;;;4.40;;
4057;SDS011;2044;48.692;9.020;2023-05-29T04:37:15;9.43;;;5.63;;
4057;SDS011;2044;48.692;9.020;2023-05-29T04:39:42;9.43;;;5.20;;
4057;SDS011;2044;48.692;9.020;2023-05-29T04:42:09;8.50;;;4.57;;
4057;SDS011;2044;48.692;9.020;2023-05-29T04:44:37;8.07;;;4.67;;
4057;SDS011;2044;48.692;9.020;2023-05-29T04:47:04;10.50;;;5.90;;
4057;SDS011;2044;48.692;9.020;2023-05-29T04:49:31;9.60;;;5.67;;
4057;SDS011;2044;48.692;9.020;2023-05-29T04:51:58;8.90;;;6.23;;
4057;SDS011;2044;48.692;9.020;2023-05-29T04:54:26;9.10;;;6.70;;
4057;SDS011;2044;48.692;9.020;2023-05-29T04:56:54;9.00;;;6.13;;
4057;SDS011;2044;48.692;9.020;2023-05-29T04:59:20;8.13;;;7.03;;
4057;SDS011;2044;48.692;9.020;2023-05-29T05:01:47;8.87;;;7.70;;
4057;SDS011;2044;48.692;9.020;2023-05-29T05:04:15;8.40;;;7.67;;
4057;SDS011;2044;48.692;9.020;2023-05-29T05:06:41;9.10;;;8.27;;
4057;SDS011;2044;48.692;9.020;2023-05-29T05:09:09;8.67;;;7.93;;
4057;SDS011;2044;48.692;9.020;2023-05-29T05:11:37;9.27;;;8.57;;
4057;SDS011;2044;48.692;9.020;2023-05-29T05:14:04;10.40;;;9.40;;
4057;SDS011;2044;48.692;9.020;2023-05-29T05:16:30;10.27;;;9.27;;
4057;SDS011;2044;48.692;9.020;2023-05-29T05:18:58;10.77;;;9.77;;
4057;SDS011;2044;48.692;9.020;2023-05-29T05:21:24;10.23;;;9.43;;
4057;SDS011;2044;48.692;9.020;2023-05-29T05:23:51;10.90;;;9.90;;
4057;SDS011;2044;48.692;9.020;2023-05-29T05:26:18;10.70;;;9.80;;
4057;SDS011;2044;48.692;9.020;2023-05-29T05:28:46;11.57;;;10.47;;
4057;SDS011;2044;48.692;9.020;2023-05-29T05:31:13;11.50;;;10.60;;
4057;SDS011;2044;48.692;9.020;2023-05-29T05:33:40;10.20;;;9.40;;
4057;SDS011;2044;48.692;9.020;2023-05-29T05:36:06;10.87;;;9.97;;
4057;SDS011;2044;48.692;9.020;2023-05-29T05:38:33;11.60;;;10.50;;
4057;SDS011;2044;48.692;9.020;2023-05-29T05:41:00;12.03;;;10.83;;
4057;SDS011;2044;48.692;9.020;2023-05-29T05:43:26;13.33;;;12.03;;
4057;SDS011;2044;48.692;9.020;2023-05-29T05:45:55;11.50;;;10.50;;
4057;SDS011;2044;48.692;9.020;2023-05-29T05:48:22;10.13;;;9.43;;
4057;SDS011;2044;48.692;9.020;2023-05-29T05:50:48;11.20;;;10.30;;
4057;SDS011;2044;48.692;9.020;2023-05-29T05:53:15;10.77;;;9.87;;
4057;SDS011;2044;48.692;9.020;2023-05-29T05:55:42;11.50;;;10.60;;
4057;SDS011;2044;48.692;9.020;2023-05-29T05:58:09;11.50;;;10.40;;
4057;SDS011;2044;48.692;9.020;2023-05-29T06:00:36;11.90;;;11.00;;
4057;SDS011;2044;48.692;9.020;2023-05-29T06:03:04;10.60;;;9.70;;
4057;SDS011;2044;48.692;9.020;2023-05-29T06:05:31;11.47;;;10.47;;
4057;SDS011;2044;48.692;9.020;2023-05-29T06:07:59;11.40;;;10.50;;
4057;SDS011;2044;48.692;9.020;2023-05-29T06:10:26;11.50;;;10.60;;
4057;SDS011;2044;48.692;9.020;2023-05-29T06:12:52;12.60;;;10.60;;
4057;SDS011;2044;48.692;9.020;2023-05-29T06:15:19;11.60;;;10.60;;
4057;SDS011;2044;48.692;9.020;2023-05-29T06:17:46;11.53;;;10.60;;
4057;SDS011;2044;48.692;9.020;2023-05-29T06:20:14;11.43;;;10.30;;
4057;SDS011;2044;48.692;9.020;2023-05-29T06:22:40;10.13;;;9.50;;
4057;SDS011;2044;48.692;9.020;2023-05-29T06:25:15;10.90;;;10.10;;
4057;SDS011;2044;48.692;9.020;2023-05-29T06:27:43;11.30;;;10.30;;
4057;SDS011;2044;48.692;9.020;2023-05-29T06:30:10;10.87;;;10.10;;
4057;SDS011;2044;48.692;9.020;2023-05-29T06:32:37;10.83;;;10.10;;
4057;SDS011;2044;48.692;9.020;2023-05-29T06:35:05;10.23;;;9.43;;
4057;SDS011;2044;48.692;9.020;2023-05-29T06:37:32;10.93;;;10.13;;
4057;SDS011;2044;48.692;9.020;2023-05-29T06:39:59;10.63;;;9.83;;
4057;SDS011;2044;48.692;9.020;2023-05-29T06:42:27;10.20;;;9.60;;
4057;SDS011;2044;48.692;9.020;2023-05-29T06:44:53;10.37;;;9.60;;
4057;SDS011;2044;48.692;9.020;2023-05-29T06:47:20;10.50;;;9.70;;
4057;SDS011;2044;48.692;9.020;2023-05-29T06:49:47;10.80;;;10.00;;
4057;SDS011;2044;48.692;9.020;2023-05-29T06:52:13;11.67;;;10.77;;
4057;SDS011;2044;48.692;9.020;2023-05-29T06:54:40;10.00;;;9.37;;
4057;SDS011;2044;48.692;9.020;2023-05-29T06:57:07;9.90;;;9.30;;
4057;SDS011;2044;48.692;9.020;2023-05-29T06:59:35;9.27;;;8.77;;
4057;SDS011;2044;48.692;9.020;2023-05-29T07:02:02;9.77;;;9.00;;
4057;SDS011;2044;48.692;9.020;2023-05-29T07:04:30;9.43;;;8.83;;
4057;SDS011;2044;48.692;9.020;2023-05-29T07:06:57;9.70;;;9.00;;
4057;SDS011;2044;48.692;9.020;2023-05-29T07:09:23;9.83;;;8.90;;
4057;SDS011;2044;48.692;9.020;2023-05-29T07:11:52;9.27;;;8.57;;
4057;SDS011;2044;48.692;9.020;2023-05-29T07:14:19;9.10;;;8.50;;
4057;SDS011;2044;48.692;9.020;2023-05-29T07:16:47;8.67;;;8.17;;
4057;SDS011;2044;48.692;9.020;2023-05-29T07:19:13;9.43;;;8.83;;
4057;SDS011;2044;48.692;9.020;2023-05-29T07:21:41;9.80;;;9.00;;
4057;SDS011;2044;48.692;9.020;2023-05-29T07:24:08;9.83;;;8.97;;
4057;SDS011;2044;48.692;9.020;2023-05-29T07:26:34;9.53;;;8.83;;
4057;SDS011;2044;48.692;9.020;2023-05-29T07:29:01;9.40;;;8.80;;
4057;SDS011;2044;48.692;9.020;2023-05-29T07:31:28;9.93;;;9.23;;
4057;SDS011;2044;48.692;9.020;2023-05-29T07:33:56;10.30;;;9.40;;
4057;SDS011;2044;48.692;9.020;2023-05-29T07:36:22;10.00;;;9.10;;
4057;SDS011;2044;48.692;9.020;2023-05-29T07:38:55;10.90;;;9.90;;
4057;SDS011;2044;48.692;9.020;2023-05-29T07:41:23;10.20;;;9.30;;
4057;SDS011;2044;48.692;9.020;2023-05-29T07:43:51;9.60;;;8.90;;
4057;SDS011;2044;48.692;9.020;2023-05-29T07:46:18;9.83;;;9.13;;
4057;SDS011;2044;48.692;9.020;2023-05-29T07:48:45;9.93;;;9.13;;
4057;SDS011;2044;48.692;9.020;2023-05-29T07:51:13;9.77;;;8.83;;
4057;SDS011;2044;48.692;9.020;2023-05-29T07:53:40;9.77;;;9.17;;
4057;SDS011;2044;48.692;9.020;2023-05-29T07:56:09;10.40;;;9.60;;
4057;SDS011;2044;48.692;9.020;2023-05-29T07:58:36;10.00;;;9.30;;
4057;SDS011;2044;48.692;9.020;2023-05-29T08:01:05;10.90;;;10.00;;
4057;SDS011;2044;48.692;9.020;2023-05-29T08:03:31;11.33;;;10.50;;
4057;SDS011;2044;48.692;9.020;2023-05-29T08:05:58;10.97;;;10.17;;
4057;SDS011;2044;48.692;9.020;2023-05-29T08:08:26;10.50;;;9.80;;
4057;SDS011;2044;48.692;9.020;2023-05-29T08:10:53;10.60;;;9.87;;
4057;SDS011;2044;48.692;9.020;2023-05-29T08:13:19;11.10;;;10.30;;
4057;SDS011;2044;48.692;9.020;2023-05-29T08:15:47;10.53;;;9.60;;
4057;SDS011;2044;48.692;9.020;2023-05-29T08:18:14;11.50;;;10.60;;
4057;SDS011;2044;48.692;9.020;2023-05-29T08:20:40;10.13;;;9.40;;
4057;SDS011;2044;48.692;9.020;2023-05-29T08:23:07;10.07;;;9.33;;
4057;SDS011;2044;48.692;9.020;2023-05-29T08:25:36;9.23;;;8.53;;
4057;SDS011;2044;48.692;9.020;2023-05-29T08:28:03;9.90;;;9.10;;
4057;SDS011;2044;48.692;9.020;2023-05-29T08:30:30;11.03;;;10.03;;
4057;SDS011;2044;48.692;9.020;2023-05-29T08:32:56;10.57;;;9.80;;
4057;SDS011;2044;48.692;9.020;2023-05-29T08:35:23;10.97;;;10.17;;
4057;SDS011;2044;48.692;9.020;2023-05-29T08:37:50;11.37;;;9.90;;
4057;SDS011;2044;48.692;9.020;2023-05-29T08:40:17;10.60;;;9.77;;
4057;SDS011;2044;48.692;9.020;2023-05-29T08:42:47;10.40;;;9.50;;
4057;SDS011;2044;48.692;9.020;2023-05-29T08:45:15;9.23;;;8.63;;
4057;SDS011;2044;48.692;9.020;2023-05-29T08:47:47;9.97;;;9.17;;
4057;SDS011;2044;48.692;9.020;2023-05-29T08:50:18;10.20;;;9.47;;
4057;SDS011;2044;48.692;9.020;2023-05-29T08:52:45;10.53;;;9.57;;
4057;SDS011;2044;48.692;9.020;2023-05-29T08:55:12;9.90;;;9.20;;
4057;SDS011;2044;48.692;9.020;2023-05-29T08:57:40;10.20;;;9.50;;
4057;SDS011;2044;48.692;9.020;2023-05-29T09:00:10;10.60;;;9.73;;
4057;SDS011;2044;48.692;9.020;2023-05-29T09:02:40;10.87;;;9.87;;
4057;SDS011;2044;48.692;9.020;2023-05-29T09:05:08;11.27;;;10.27;;
4057;SDS011;2044;48.692;9.020;2023-05-29T09:07:37;10.83;;;9.97;;
4057;SDS011;2044;48.692;9.020;2023-05-29T09:10:04;10.50;;;9.70;;
4057;SDS011;2044;48.692;9.020;2023-05-29T09:12:32;11.00;;;10.07;;
4057;SDS011;2044;48.692;9.020;2023-05-29T09:14:59;9.80;;;9.10;;
4057;SDS011;2044;48.692;9.020;2023-05-29T09:17:31;11.27;;;10.40;;
4057;SDS011;2044;48.692;9.020;2023-05-29T09:19:59;10.77;;;9.80;;
4057;SDS011;2044;48.692;9.020;2023-05-29T09:22:29;10.10;;;9.40;;
4057;SDS011;2044;48.692;9.020;2023-05-29T09:24:57;10.27;;;9.27;;
4057;SDS011;2044;48.692;9.020;2023-05-29T09:27:24;10.33;;;9.60;;
4057;SDS011;2044;48.692;9.020;2023-05-29T09:29:51;10.53;;;9.77;;
4057;SDS011;2044;48.692;9.020;2023-05-29T09:32:18;9.80;;;9.10;;
4057;SDS011;2044;48.692;9.020;2023-05-29T09:34:46;11.20;;;10.33;;
4057;SDS011;2044;48.692;9.020;2023-05-29T09:37:13;11.27;;;10.27;;
4057;SDS011;2044;48.692;9.020;2023-05-29T09:39:46;11.37;;;10.40;;
4057;SDS011;2044;48.692;9.020;2023-05-29T09:42:13;9.83;;;8.93;;
4057;SDS011;2044;48.692;9.020;2023-05-29T09:44:41;10.13;;;9.43;;
4057;SDS011;2044;48.692;9.020;2023-05-29T09:47:08;9.73;;;8.93;;
4057;SDS011;2044;48.692;9.020;2023-05-29T09:49:35;10.60;;;9.90;;
4057;SDS011;2044;48.692;9.020;2023-05-29T09:52:08;9.07;;;8.37;;
4057;SDS011;2044;48.692;9.020;2023-05-29T09:54:39;9.77;;;9.07;;
4057;SDS011;2044;48.692;9.020;2023-05-29T09:57:07;8.70;;;8.20;;
4057;SDS011;2044;48.692;9.020;2023-05-29T09:59:35;10.63;;;9.90;;
4057;SDS011;2044;48.692;9.020;2023-05-29T10:02:04;10.27;;;9.47;;
4057;SDS011;2044;48.692;9.020;2023-05-29T10:04:32;10.20;;;9.50;;
4057;SDS011;2044;48.692;9.020;2023-05-29T10:07:00;10.00;;;9.20;;
4057;SDS011;2044;48.692;9.020;2023-05-29T10:09:33;9.77;;;9.00;;
4057;SDS011;2044;48.692;9.020;2023-05-29T10:12:04;8.80;;;8.13;;
4057;SDS011;2044;48.692;9.020;2023-05-29T10:14:34;9.43;;;8.73;;
4057;SDS011;2044;48.692;9.020;2023-05-29T10:17:02;9.23;;;8.63;;
4057;SDS011;2044;48.692;9.020;2023-05-29T10:19:33;9.83;;;8.83;;
4057;SDS011;2044;48.692;9.020;2023-05-29T10:22:03;9.60;;;8.90;;
4057;SDS011;2044;48.692;9.020;2023-05-29T10:24:31;10.20;;;9.50;;
4057;SDS011;2044;48.692;9.020;2023-05-29T10:27:00;10.20;;;9.50;;
4057;SDS011;2044;48.692;9.020;2023-05-29T10:29:28;9.73;;;9.03;;
4057;SDS011;2044;48.692;9.020;2023-05-29T10:32:06;9.17;;;8.47;;
4057;SDS011;2044;48.692;9.020;2023-05-29T10:34:42;8.93;;;8.30;;
4057;SDS011;2044;48.692;9.020;2023-05-29T10:37:18;9.30;;;8.60;;
4057;SDS011;2044;48.692;9.020;2023-05-29T10:39:54;8.90;;;8.23;;
4057;SDS011;2044;48.692;9.020;2023-05-29T10:42:46;8.53;;;7.93;;
4057;SDS011;2044;48.692;9.020;2023-05-29T10:51:08;9.07;;;8.47;;
4057;SDS011;2044;48.692;9.020;2023-05-29T10:53:49;10.10;;;8.90;;
4057;SDS011;2044;48.692;9.020;2023-05-29T10:56:21;9.83;;;9.03;;
4057;SDS011;2044;48.692;9.020;2023-05-29T10:58:54;9.20;;;8.50;;
4057;SDS011;2044;48.692;9.020;2023-05-29T11:01:26;9.93;;;9.03;;
4057;SDS011;2044;48.692;9.020;2023-05-29T11:03:54;10.10;;;9.40;;
4057;SDS011;2044;48.692;9.020;2023-05-29T11:06:54;10.07;;;9.30;;
4057;SDS011;2044;48.692;9.020;2023-05-29T11:09:28;9.10;;;8.30;;
4057;SDS011;2044;48.692;9.020;2023-05-29T11:15:02;10.03;;;9.33;;
4057;SDS011;2044;48.692;9.020;2023-05-29T11:17:32;8.53;;;7.77;;
4057;SDS011;2044;48.692;9.020;2023-05-29T11:20:09;7.43;;;7.03;;
4057;SDS011;2044;48.692;9.020;2023-05-29T11:23:02;9.83;;;7.63;;
4057;SDS011;2044;48.692;9.020;2023-05-29T11:25:33;7.93;;;7.10;;
4057;SDS011;2044;48.692;9.020;2023-05-29T11:28:03;10.93;;;9.93;;
4057;SDS011;2044;48.692;9.020;2023-05-29T11:30:40;8.57;;;7.87;;
4057;SDS011;2044;48.692;9.020;2023-05-29T11:33:08;9.30;;;8.60;;
4057;SDS011;2044;48.692;9.020;2023-05-29T11:35:44;7.93;;;7.43;;
4057;SDS011;2044;48.692;9.020;2023-05-29T11:38:12;7.50;;;7.00;;
4057;SDS011;2044;48.692;9.020;2023-05-29T11:40:41;7.40;;;6.90;;
4057;SDS011;2044;48.692;9.020;2023-05-29T11:43:10;7.90;;;7.10;;
4057;SDS011;2044;48.692;9.020;2023-05-29T11:45:38;6.70;;;6.10;;
4057;SDS011;2044;48.692;9.020;2023-05-29T11:48:05;8.60;;;7.90;;
4057;SDS011;2044;48.692;9.020;2023-05-29T11:50:32;6.90;;;6.40;;
4057;SDS011;2044;48.692;9.020;2023-05-29T11:52:59;26.17;;;19.93;;
4057;SDS011;2044;48.692;9.020;2023-05-29T11:55:26;36.63;;;27.80;;
4057;SDS011;2044;48.692;9.020;2023-05-29T11:57:55;10.57;;;9.73;;
4057;SDS011;2044;48.692;9.020;2023-05-29T12:00:25;8.33;;;7.50;;
4057;SDS011;2044;48.692;9.020;2023-05-29T12:02:57;8.00;;;7.40;;
4057;SDS011;2044;48.692;9.020;2023-05-29T12:05:28;7.37;;;6.77;;
4057;SDS011;2044;48.692;9.020;2023-05-29T12:07:55;8.57;;;7.97;;
4057;SDS011;2044;48.692;9.020;2023-05-29T12:10:26;10.40;;;6.53;;
4057;SDS011;2044;48.692;9.020;2023-05-29T12:12:53;7.80;;;7.10;;
4057;SDS011;2044;48.692;9.020;2023-05-29T12:15:20;7.50;;;7.00;;
4057;SDS011;2044;48.692;9.020;2023-05-29T12:17:53;8.30;;;7.60;;
4057;SDS011;2044;48.692;9.020;2023-05-29T12:20:22;7.80;;;7.20;;
4057;SDS011;2044;48.692;9.020;2023-05-29T12:22:51;6.97;;;6.37;;
4057;SDS011;2044;48.692;9.020;2023-05-29T12:25:19;7.50;;;6.90;;
4057;SDS011;2044;48.692;9.020;2023-05-29T12:27:46;9.53;;;8.70;;
4057;SDS011;2044;48.692;9.020;2023-05-29T12:30:14;9.03;;;8.23;;
4057;SDS011;2044;48.692;9.020;2023-05-29T12:32:46;9.03;;;8.40;;
4057;SDS011;2044;48.692;9.020;2023-05-29T12:35:16;9.90;;;9.20;;
4057;SDS011;2044;48.692;9.020;2023-05-29T12:37:44;7.83;;;7.27;;
4057;SDS011;2044;48.692;9.020;2023-05-29T12:40:15;8.40;;;7.80;;
4057;SDS011;2044;48.692;9.020;2023-05-29T12:42:46;8.93;;;8.13;;
4057;SDS011;2044;48.692;9.020;2023-05-29T12:45:13;8.70;;;8.10;;
4057;SDS011;2044;48.692;9.020;2023-05-29T12:47:50;7.63;;;7.13;;
4057;SDS011;2044;48.692;9.020;2023-05-29T12:50:22;7.43;;;7.03;;
4057;SDS011;2044;48.692;9.020;2023-05-29T12:52:57;7.30;;;6.73;;
4057;SDS011;2044;48.692;9.020;2023-05-29T12:55:24;7.63;;;7.03;;
4057;SDS011;2044;48.692;9.020;2023-05-29T12:57:51;7.83;;;7.30;;
4057;SDS011;2044;48.692;9.020;2023-05-29T13:00:19;8.20;;;7.50;;
4057;SDS011;2044;48.692;9.020;2023-05-29T13:02:46;7.43;;;6.93;;
4057;SDS011;2044;48.692;9.020;2023-05-29T13:05:13;8.83;;;8.20;;
4057;SDS011;2044;48.692;9.020;2023-05-29T13:07:42;7.57;;;7.03;;
4057;SDS011;2044;48.692;9.020;2023-05-29T13:10:09;7.47;;;6.97;;
4057;SDS011;2044;48.692;9.020;2023-05-29T13:12:36;7.20;;;6.60;;
4057;SDS011;2044;48.692;9.020;2023-05-29T13:15:03;7.50;;;7.00;;
4057;SDS011;2044;48.692;9.020;2023-05-29T13:17:31;7.30;;;6.80;;
4057;SDS011;2044;48.692;9.020;2023-05-29T13:19:57;7.80;;;7.30;;
4057;SDS011;2044;48.692;9.020;2023-05-29T13:22:24;7.77;;;7.27;;
4057;SDS011;2044;48.692;9.020;2023-05-29T13:24:57;8.13;;;7.03;;
4057;SDS011;2044;48.692;9.020;2023-05-29T13:27:24;6.23;;;5.83;;
4057;SDS011;2044;48.692;9.020;2023-05-29T13:29:52;7.03;;;6.50;;
4057;SDS011;2044;48.692;9.020;2023-05-29T13:32:19;6.57;;;6.17;;
4057;SDS011;2044;48.692;9.020;2023-05-29T13:34:46;6.80;;;6.30;;
4057;SDS011;2044;48.692;9.020;2023-05-29T13:37:15;6.63;;;6.23;;
4057;SDS011;2044;48.692;9.020;2023-05-29T13:39:42;7.40;;;6.90;;
4057;SDS011;2044;48.692;9.020;2023-05-29T13:42:10;8.07;;;7.40;;
4057;SDS011;2044;48.692;9.020;2023-05-29T13:44:36;8.23;;;7.63;;
4057;SDS011;2044;48.692;9.020;2023-05-29T13:47:04;7.00;;;6.60;;
4057;SDS011;2044;48.692;9.020;2023-05-29T13:49:32;6.80;;;6.20;;
4057;SDS011;2044;48.692;9.020;2023-05-29T13:51:59;7.10;;;6.60;;
4057;SDS011;2044;48.692;9.020;2023-05-29T13:54:25;7.50;;;7.10;;
4057;SDS011;2044;48.692;9.020;2023-05-29T13:56:54;7.23;;;6.63;;
4057;SDS011;2044;48.692;9.020;2023-05-29T13:59:23;7.20;;;6.70;;
4057;SDS011;2044;48.692;9.020;2023-05-29T14:01:50;7.20;;;6.80;;
4057;SDS011;2044;48.692;9.020;2023-05-29T14:04:17;7.50;;;6.70;;
4057;SDS011;2044;48.692;9.020;2023-05-29T14:06:44;7.93;;;7.10;;
4057;SDS011;2044;48.692;9.020;2023-05-29T14:09:11;7.13;;;6.57;;
4057;SDS011;2044;48.692;9.020;2023-05-29T14:11:38;7.90;;;7.40;;
4057;SDS011;2044;48.692;9.020;2023-05-29T14:14:04;9.00;;;8.20;;
4057;SDS011;2044;48.692;9.020;2023-05-29T14:16:33;7.70;;;7.10;;
4057;SDS011;2044;48.692;9.020;2023-05-29T14:19:00;7.90;;;7.40;;
4057;SDS011;2044;48.692;9.020;2023-05-29T14:21:27;7.27;;;6.87;;
4057;SDS011;2044;48.692;9.020;2023-05-29T14:23:53;7.00;;;6.50;;
4057;SDS011;2044;48.692;9.020;2023-05-29T14:26:20;7.17;;;6.67;;
4057;SDS011;2044;48.692;9.020;2023-05-29T14:28:47;8.13;;;7.43;;
4057;SDS011;2044;48.692;9.020;2023-05-29T14:31:13;6.80;;;6.40;;
4057;SDS011;2044;48.692;9.020;2023-05-29T14:33:41;6.93;;;6.43;;
4057;SDS011;2044;48.692;9.020;2023-05-29T14:36:08;7.30;;;6.80;;
4057;SDS011;2044;48.692;9.020;2023-05-29T14:38:35;7.60;;;7.10;;
4057;SDS011;2044;48.692;9.020;2023-05-29T14:41:02;8.00;;;7.30;;
4057;SDS011;2044;48.692;9.020;2023-05-29T14:43:28;7.57;;;7.07;;
4057;SDS011;2044;48.692;9.020;2023-05-29T14:45:55;7.80;;;7.30;;
4057;SDS011;2044;48.692;9.020;2023-05-29T14:48:22;7.87;;;7.33;;
4057;SDS011;2044;48.692;9.020;2023-05-29T14:50:50;7.93;;;7.40;;
4057;SDS011;2044;48.692;9.020;2023-05-29T14:53:17;7.70;;;7.20;;
4057;SDS011;2044;48.692;9.020;2023-05-29T14:55:45;7.73;;;7.10;;
4057;SDS011;2044;48.692;9.020;2023-05-29T14:58:12;7.73;;;7.20;;
4057;SDS011;2044;48.692;9.020;2023-05-29T15:00:39;7.00;;;6.50;;
4057;SDS011;2044;48.692;9.020;2023-05-29T15:03:06;7.40;;;6.90;;
4057;SDS011;2044;48.692;9.020;2023-05-29T15:05:32;7.50;;;6.90;;
4057;SDS011;2044;48.692;9.020;2023-05-29T15:08:00;6.37;;;5.97;;
4057;SDS011;2044;48.692;9.020;2023-05-29T15:10:27;6.97;;;6.57;;
4057;SDS011;2044;48.692;9.020;2023-05-29T15:12:54;7.10;;;6.60;;
4057;SDS011;2044;48.692;9.020;2023-05-29T15:15:23;7.67;;;7.00;;
4057;SDS011;2044;48.692;9.020;2023-05-29T15:17:50;8.00;;;7.50;;
4057;SDS011;2044;48.692;9.020;2023-05-29T15:20:18;7.80;;;7.20;;
4057;SDS011;2044;48.692;9.020;2023-05-29T15:22:46;7.27;;;6.87;;